Bowler, Wisconsin
Current Conditions -  °F | °C
As of 3:15 PM on Sunday 23 Nov 2014 (Local Time) from KCLI Reporting Station
Light Rain Light Rain  
Wind Chill: 42°   Ceiling: 300
Heat Index: 46°   Visibility: 1.5mi
Dew Point: 45°   Wind: 8mph
Humidity: 93%   Direction: 160°SSE
Pressure: 29.44"   Gusts: NA
Location:  44.86°N, 88.98°W
Report Text: KCLI 232115Z AUTO 16007KT 1 1/2SM -RA OVC003 08/07 A2944 RMK AO2 P0001
Loading
Personal Weather Stations






























Interactive Weather Map New forecast layout! Learn more

10-Day Weather Forecast

Advertisements
Track Severe Weather on mobile